Midnight Wolf — HO7969 — position and weather

sailwx.info

Track history (hours):
 
Tides and Currents Weather Stations Pressure Air Temp Water Temp Dewpoint Dewpoint Depression Visibility Wind Speed Wind Dir Waves Ship Positions

Midnight Wolf

Last reported at 2016-Sep-26 20:30 UTC. Time now 2016-Sep-27 10:27 UTC.
Position N 18°20' W 064°39'.

Length 51 m; draft 4 m.

Type: Cargo ship. MMSI: 351880000.

Date/timePositionNaut miles runAvg speedWind from/ knotsBaromVisibWave heightAir tempDewpointWater temp
2016-Sep-26 20:30N 18°20' W 064°39'8 8.1
2016-Sep-26 19:28N 18°17' W 064°48'6 0.2
2016-Sep-25 10:25N 18°18' W 064°53'8 9.1
2016-Sep-25 09:33N 18°17' W 064°45'12 0.8
2016-Sep-24 19:23N 18°25' W 064°36'3 4.1
2016-Sep-24 18:33N 18°22' W 064°35'3 2.9
2016-Sep-24 17:27N 18°25' W 064°36'3 0.6
2016-Sep-24 12:12N 18°23' W 064°39'11 6.4
2016-Sep-24 10:33N 18°24' W 064°50'5 0.2
2016-Sep-23 03:33N 18°27' W 064°55'9 8.7
2016-Sep-23 02:33N 18°23' W 064°47'9 9.2
2016-Sep-23 01:33N 18°23' W 064°37'2 0.1
2016-Sep-22 12:09N 18°25' W 064°36'68 8.8
2016-Sep-22 04:26N 18°09' W 063°26'7 8.4
2016-Sep-22 03:33N 18°08' W 063°19'13 4.4
2016-Sep-22 00:33N 18°05' W 063°05'0 0.0
2016-Sep-21 23:21N 18°05' W 063°05'0 0.0
2016-Sep-21 22:28N 18°05' W 063°05'0 0.1
2016-Sep-21 19:24N 18°05' W 063°05'5 1.7
2016-Sep-21 16:31N 18°04' W 063°10'1 0.1
2016-Sep-21 05:30N 18°03' W 063°09'4 2.1
2016-Sep-21 03:33N 18°05' W 063°05'0 0.0
2016-Sep-21 02:21N 18°05' W 063°05'99 2.8
2016-Sep-19 14:33N 18°15' W 064°49'4 0.1
2016-Sep-18 10:33N 18°17' W 064°52'9 8.9
2016-Sep-18 09:33N 18°17' W 064°43'  
Track history (hours):
 
Tides and Currents Weather Stations Pressure Air Temp Water Temp Dewpoint Dewpoint Depression Visibility Wind Speed Wind Dir Waves Ship Positions

Midnight Wolf

Last reported at 2016-Sep-26 20:30 UTC. Time now 2016-Sep-27 10:27 UTC.
Position N 18°20' W 064°39'.

Length 51 m; draft 4 m.

Type: Cargo ship. MMSI: 351880000.

Date/timePositionNaut miles runAvg speedWind from/ knotsBaromVisibWave heightAir tempDewpointWater temp
2016-Sep-26 20:30N 18°20' W 064°39'8 8.1
2016-Sep-26 19:28N 18°17' W 064°48'6 0.2
2016-Sep-25 10:25N 18°18' W 064°53'8 9.1
2016-Sep-25 09:33N 18°17' W 064°45'12 0.8
2016-Sep-24 19:23N 18°25' W 064°36'3 4.1
2016-Sep-24 18:33N 18°22' W 064°35'3 2.9
2016-Sep-24 17:27N 18°25' W 064°36'3 0.6
2016-Sep-24 12:12N 18°23' W 064°39'11 6.4
2016-Sep-24 10:33N 18°24' W 064°50'5 0.2
2016-Sep-23 03:33N 18°27' W 064°55'9 8.7
2016-Sep-23 02:33N 18°23' W 064°47'9 9.2
2016-Sep-23 01:33N 18°23' W 064°37'2 0.1
2016-Sep-22 12:09N 18°25' W 064°36'68 8.8
2016-Sep-22 04:26N 18°09' W 063°26'7 8.4
2016-Sep-22 03:33N 18°08' W 063°19'13 4.4
2016-Sep-22 00:33N 18°05' W 063°05'0 0.0
2016-Sep-21 23:21N 18°05' W 063°05'0 0.0
2016-Sep-21 22:28N 18°05' W 063°05'0 0.1
2016-Sep-21 19:24N 18°05' W 063°05'5 1.7
2016-Sep-21 16:31N 18°04' W 063°10'1 0.1
2016-Sep-21 05:30N 18°03' W 063°09'4 2.1
2016-Sep-21 03:33N 18°05' W 063°05'0 0.0
2016-Sep-21 02:21N 18°05' W 063°05'99 2.8
2016-Sep-19 14:33N 18°15' W 064°49'4 0.1
2016-Sep-18 10:33N 18°17' W 064°52'9 8.9
2016-Sep-18 09:33N 18°17' W 064°43'  

Dump ship's entire track history